Domov               UVHVVR             MKGP            O straneh              
ZDRAVSTVENO VARSTVO RASTLIN
  MREŽA AGROMET. POSTAJ
 ► PROGNOSTIČNA OBVESTILA
AGROMETEOROLOŠKI PODATKI -
ARSO
OBVLADOVANJE TVEGANJ ZARADI
NEUGODNIH VREMENSKIH RAZMER
  ► NARAVNE NESREČE
  ► SUŠA/MOČA
  ► NAMAKANJE
  ► ŽLED (gozdarstvo)
KARTOGRAFSKI PRIKAZI
SPLETNE POVEZAVE
PROJEKTI IN PUBLIKACIJE

AGROMETEOROLOŠKA MREŽA: VREMENSKE POSTAJE IN FENOLOŠKA OPAZOVANJA

Pregled podatkov za lokacijo Višnjevik, meteorološka postaja 857246

Pregled senzorjev na lokaciji

ID Ime Zadnja
vrednost
Datum
zadnje
spremembe
Tip
senzorja
3904 Omočenost lista (U) 0 U 23.3.2019 11:45 A730WET
3906 Padavine (mm) 0 mm 23.3.2019 11:45 Rain-O-Matic
3903 Relativna vlaga 2 m (% RH) 29,01 % RH 23.3.2019 11:45 50YA
3902 Temperatura 2 m (°C) 20,16 °C 23.3.2019 11:45 50YA

Pregled podatkov zadnjih 24 ur

Zap.
št.
Datum in čas Višnjevik
Omočenost
lista
Padavine Relativna
vlaga
2
m
Temperatura
2
m
1 23.3.2019 11:00 0 0 29 20,2
2 23.3.2019 10:30 0 0 29,5 19,4
3 23.3.2019 10:00 0 0 30,7 18,8
4 23.3.2019 09:30 0 0 32 18
5 23.3.2019 09:00 0 0 33,6 16,9
6 23.3.2019 08:30 0 0 35,4 15,7
7 23.3.2019 08:00 0 0 37,3 14,6
8 23.3.2019 07:30 0 0 40,1 13
9 23.3.2019 07:00 0 0 41,5 11,9
10 23.3.2019 06:30 0 0 41,5 11,3
11 23.3.2019 06:00 0 0 40,6 11,6
12 23.3.2019 05:30 0 0 40,9 11,4
13 23.3.2019 05:00 0 0 39,8 11,7
14 23.3.2019 04:30 0 0 35,9 13,1
15 23.3.2019 04:00 0 0 37,1 12,5
16 23.3.2019 03:30 0 0 38,4 12,3
17 23.3.2019 03:00 0 0 37,5 12,7
18 23.3.2019 02:30 0 0 35,5 13,4
19 23.3.2019 02:00 0 0 35,1 13,4
20 23.3.2019 01:30 0 0 33,7 13,8
21 23.3.2019 01:00 0 0 33,8 13,7
22 23.3.2019 00:30 0 0 32,9 14,1
23 23.3.2019 00:00 0 0 32,3 14,5
24 22.3.2019 23:30 0 0 32 14,9
25 22.3.2019 23:00 0 0 31,5 15,2
26 22.3.2019 22:30 0 0 32,3 15,1
27 22.3.2019 22:00 0 0 31 15,7
28 22.3.2019 21:30 0 0 32,3 15,1
29 22.3.2019 21:00 0 0 34,1 14,3
30 22.3.2019 20:30 0 0 31,6 15,4
31 22.3.2019 20:00 0 0 30,8 15,9
32 22.3.2019 19:30 0 0 29,2 16,3
33 22.3.2019 19:00 0 0 30,7 16
34 22.3.2019 18:30 0 0 31 16,2
35 22.3.2019 18:00 0 0 27,8 17,4
36 22.3.2019 17:30 0 0 22,5 18,3
37 22.3.2019 17:00 0 0 20,1 18,8
38 22.3.2019 16:30 0 0 19,3 19,4
39 22.3.2019 16:00 0 0 19,3 20,6
40 22.3.2019 15:30 0 0 21,9 20,2
41 22.3.2019 15:00 0 0 22,2 20,7
42 22.3.2019 14:30 0 0 23,6 20,3
43 22.3.2019 14:00 0 0 23,5 20,4
44 22.3.2019 13:30 0 0 24,4 20
45 22.3.2019 13:00 0 0 26,8 19,6
46 22.3.2019 12:30 0 0 27,4 19
47 22.3.2019 12:00 0 0 25,2 19,2
48 22.3.2019 11:30 0 0 25,2 18,4
© 2011 Ministrstvo za kmetijstvo, gozdarstvo in prehrano. Vse pravice pridržane.